UPS672 LDZA-EDDK
Flight info
| Callsign | UPS672 |
|---|---|
| Flight time | 1h 23m |
| Altitude | 38000 |
| Route | OBUTI DCT GOLVA DCT NEMAL DCT SIMBA DCT AKINI/N0427F240 Z109 UPALA L610 KOMIB L984 ASKIK T840 GULKO GULKO1B |
| Aircraft | MD11/H-SDE1E2E3FGHIJ2J3J4J5M1RWXY/LB1D1 |
Departure
| Time | 2026-04-26 14:44 |
|---|---|
| Airport | Zagreb Franjo Tuđman International Airport (LDZA) |
Arrival
| Time | 2026-04-26 16:07 |
|---|---|
| Airport | Cologne Bonn Airport (EDDK) |
| Time | Latitude | Longitude | Altitude | Speed | Heading |
|---|---|---|---|---|---|
| 2026-04-26 14:06 | 45.73528 | 16.06263 | 368 ft | 0 kts | 270° |
| 2026-04-26 14:38 | 45.73528 | 16.06249 | 366 ft | 5 kts | 270° |
| 2026-04-26 14:39 | 45.73538 | 16.06202 | 371 ft | 3 kts | 309° |
| 2026-04-26 14:39 | 45.73555 | 16.06194 | 372 ft | 1 kts | 359° |
| 2026-04-26 14:39 | 45.73578 | 16.06203 | 371 ft | 5 kts | 16° |
| 2026-04-26 14:39 | 45.73609 | 16.06234 | 368 ft | 8 kts | 39° |
| 2026-04-26 14:40 | 45.73646 | 16.06287 | 370 ft | 7 kts | 46° |
| 2026-04-26 14:40 | 45.73673 | 16.06328 | 372 ft | 5 kts | 48° |
| 2026-04-26 14:40 | 45.73691 | 16.06357 | 370 ft | 3 kts | 48° |
| 2026-04-26 14:40 | 45.73703 | 16.06377 | 371 ft | 3 kts | 46° |
| 2026-04-26 14:41 | 45.73731 | 16.06388 | 368 ft | 5 kts | 359° |
| 2026-04-26 14:41 | 45.73766 | 16.06361 | 368 ft | 4 kts | 320° |
| 2026-04-26 14:41 | 45.73798 | 16.06320 | 373 ft | 8 kts | 317° |
| 2026-04-26 14:41 | 45.73845 | 16.06263 | 370 ft | 7 kts | 327° |
| 2026-04-26 14:42 | 45.73884 | 16.06265 | 371 ft | 6 kts | 20° |
| 2026-04-26 14:42 | 45.73907 | 16.06290 | 374 ft | 3 kts | 43° |
| 2026-04-26 14:42 | 45.73909 | 16.06293 | 375 ft | 0 kts | 46° |
| 2026-04-26 14:43 | 45.74023 | 16.06466 | 371 ft | 69 kts | 47° |
| 2026-04-26 14:43 | 45.74560 | 16.07286 | 368 ft | 151 kts | 47° |
| 2026-04-26 14:43 | 45.75361 | 16.08458 | 853 ft | 170 kts | 47° |
| 2026-04-26 14:44 | 45.76193 | 16.09548 | 2027 ft | 151 kts | 45° |
| 2026-04-26 14:44 | 45.76969 | 16.10615 | 2969 ft | 164 kts | 48° |
| 2026-04-26 14:44 | 45.77766 | 16.11808 | 3902 ft | 163 kts | 49° |
| 2026-04-26 14:44 | 45.78509 | 16.13027 | 4765 ft | 171 kts | 50° |
| 2026-04-26 14:45 | 45.79343 | 16.14312 | 5386 ft | 180 kts | 44° |
| 2026-04-26 14:45 | 45.79933 | 16.15196 | 5918 ft | 182 kts | 45° |
| 2026-04-26 14:45 | 45.81073 | 16.17009 | 6872 ft | 193 kts | 44° |
| 2026-04-26 14:45 | 45.82078 | 16.18586 | 7013 ft | 234 kts | 44° |
| 2026-04-26 14:46 | 45.83252 | 16.20420 | 7160 ft | 266 kts | 44° |
| 2026-04-26 14:46 | 45.84549 | 16.22444 | 7812 ft | 279 kts | 44° |
| 2026-04-26 14:46 | 45.85865 | 16.24497 | 8859 ft | 281 kts | 44° |
| 2026-04-26 14:46 | 45.87204 | 16.26578 | 9892 ft | 285 kts | 44° |
| 2026-04-26 14:47 | 45.88653 | 16.28611 | 10369 ft | 305 kts | 32° |
| 2026-04-26 14:47 | 45.90673 | 16.29900 | 10526 ft | 332 kts | 9° |
| 2026-04-26 14:47 | 45.93030 | 16.29910 | 11082 ft | 344 kts | 346° |
| 2026-04-26 14:47 | 45.95245 | 16.28613 | 11963 ft | 348 kts | 326° |
| 2026-04-26 14:48 | 45.97125 | 16.26379 | 12838 ft | 353 kts | 317° |
| 2026-04-26 14:48 | 45.99039 | 16.24156 | 13646 ft | 358 kts | 327° |
| 2026-04-26 14:48 | 46.01209 | 16.22314 | 14407 ft | 363 kts | 332° |
| 2026-04-26 14:48 | 46.03473 | 16.20587 | 15162 ft | 369 kts | 332° |
| 2026-04-26 14:49 | 46.05723 | 16.18886 | 15937 ft | 373 kts | 332° |
| 2026-04-26 14:49 | 46.08015 | 16.17117 | 16677 ft | 377 kts | 332° |
| 2026-04-26 14:49 | 46.10329 | 16.15292 | 17458 ft | 380 kts | 331° |
| 2026-04-26 14:49 | 46.12650 | 16.13432 | 18136 ft | 385 kts | 331° |
| 2026-04-26 14:50 | 46.14992 | 16.11534 | 18832 ft | 387 kts | 331° |
| 2026-04-26 14:50 | 46.17355 | 16.09607 | 19363 ft | 393 kts | 331° |
| 2026-04-26 14:50 | 46.19743 | 16.07653 | 19891 ft | 398 kts | 331° |
| 2026-04-26 14:50 | 46.22155 | 16.05675 | 20551 ft | 400 kts | 330° |
| 2026-04-26 14:51 | 46.24593 | 16.03674 | 21118 ft | 403 kts | 330° |
| 2026-04-26 14:51 | 46.27044 | 16.01659 | 21744 ft | 405 kts | 330° |
| 2026-04-26 14:51 | 46.29498 | 15.99632 | 22363 ft | 410 kts | 330° |
| 2026-04-26 14:51 | 46.31972 | 15.97581 | 23014 ft | 412 kts | 329° |
| 2026-04-26 14:52 | 46.34468 | 15.95510 | 23686 ft | 414 kts | 329° |
| 2026-04-26 14:52 | 46.36894 | 15.93500 | 25215 ft | 363 kts | 329° |
| 2026-04-26 14:52 | 46.38944 | 15.91808 | 27717 ft | 325 kts | 328° |
| 2026-04-26 14:52 | 46.40913 | 15.90177 | 28322 ft | 326 kts | 328° |
| 2026-04-26 14:53 | 46.42885 | 15.88536 | 28793 ft | 329 kts | 328° |
| 2026-04-26 14:53 | 46.44871 | 15.86882 | 29249 ft | 330 kts | 328° |
| 2026-04-26 14:53 | 46.46872 | 15.85214 | 29670 ft | 333 kts | 328° |
| 2026-04-26 14:53 | 46.48883 | 15.83538 | 30086 ft | 335 kts | 328° |
| 2026-04-26 14:54 | 46.50899 | 15.81859 | 30528 ft | 334 kts | 328° |
| 2026-04-26 14:54 | 46.52897 | 15.80193 | 30852 ft | 336 kts | 328° |
| 2026-04-26 14:54 | 46.54928 | 15.78498 | 31177 ft | 338 kts | 327° |
| 2026-04-26 14:54 | 46.57002 | 15.76764 | 31490 ft | 340 kts | 327° |
| 2026-04-26 14:55 | 46.59057 | 15.75047 | 31810 ft | 342 kts | 327° |
| 2026-04-26 14:55 | 46.61126 | 15.73315 | 32108 ft | 344 kts | 327° |
| 2026-04-26 14:55 | 46.63174 | 15.71601 | 32395 ft | 345 kts | 327° |
| 2026-04-26 14:55 | 46.65266 | 15.69847 | 32663 ft | 347 kts | 327° |
| 2026-04-26 14:56 | 46.67363 | 15.68088 | 32950 ft | 349 kts | 327° |
| 2026-04-26 14:56 | 46.69475 | 15.66315 | 33221 ft | 351 kts | 327° |
| 2026-04-26 14:56 | 46.71519 | 15.64386 | 33430 ft | 350 kts | 317° |
| 2026-04-26 14:56 | 46.73264 | 15.61928 | 33733 ft | 349 kts | 310° |
| 2026-04-26 14:57 | 46.74854 | 15.59266 | 33991 ft | 349 kts | 308° |
| 2026-04-26 14:57 | 46.76403 | 15.56537 | 34220 ft | 350 kts | 308° |
| 2026-04-26 14:57 | 46.77957 | 15.53783 | 34426 ft | 352 kts | 308° |
| 2026-04-26 14:57 | 46.79519 | 15.51027 | 34645 ft | 353 kts | 308° |
| 2026-04-26 14:58 | 46.81090 | 15.48271 | 34832 ft | 354 kts | 308° |
| 2026-04-26 14:58 | 46.82673 | 15.45508 | 35031 ft | 355 kts | 308° |
| 2026-04-26 14:58 | 46.84260 | 15.42744 | 35216 ft | 356 kts | 308° |
| 2026-04-26 14:58 | 46.85858 | 15.39964 | 35417 ft | 357 kts | 308° |
| 2026-04-26 14:59 | 46.87458 | 15.37181 | 35600 ft | 358 kts | 308° |
| 2026-04-26 14:59 | 46.89062 | 15.34389 | 35783 ft | 359 kts | 308° |
| 2026-04-26 14:59 | 46.90670 | 15.31589 | 35963 ft | 360 kts | 308° |
| 2026-04-26 14:59 | 46.91738 | 15.29727 | 36081 ft | 361 kts | 308° |
| 2026-04-26 15:00 | 46.93888 | 15.25977 | 36241 ft | 364 kts | 308° |
| 2026-04-26 15:00 | 46.95537 | 15.23095 | 36418 ft | 365 kts | 308° |
| 2026-04-26 15:00 | 46.97147 | 15.20281 | 36581 ft | 366 kts | 308° |
| 2026-04-26 15:00 | 46.98781 | 15.17420 | 36762 ft | 367 kts | 308° |
| 2026-04-26 15:01 | 47.00418 | 15.14551 | 36951 ft | 368 kts | 308° |
| 2026-04-26 15:01 | 47.02066 | 15.11661 | 37084 ft | 370 kts | 308° |
| 2026-04-26 15:01 | 47.03718 | 15.08761 | 37216 ft | 372 kts | 308° |
| 2026-04-26 15:01 | 47.05379 | 15.05840 | 37362 ft | 373 kts | 308° |
| 2026-04-26 15:02 | 47.07037 | 15.02923 | 37547 ft | 374 kts | 308° |
| 2026-04-26 15:02 | 47.08707 | 14.99981 | 37704 ft | 375 kts | 308° |
| 2026-04-26 15:02 | 47.10370 | 14.97049 | 37932 ft | 373 kts | 308° |
| 2026-04-26 15:03 | 47.13718 | 14.91134 | 37993 ft | 380 kts | 307° |
| 2026-04-26 15:03 | 47.17134 | 14.85083 | 37994 ft | 389 kts | 307° |
| 2026-04-26 15:04 | 47.20637 | 14.78867 | 37995 ft | 400 kts | 307° |
| 2026-04-26 15:04 | 47.24219 | 14.72499 | 37991 ft | 405 kts | 307° |
| 2026-04-26 15:05 | 47.27783 | 14.66088 | 37992 ft | 405 kts | 307° |
| 2026-04-26 15:05 | 47.31348 | 14.59668 | 38000 ft | 404 kts | 307° |
| 2026-04-26 15:06 | 47.34911 | 14.53271 | 38009 ft | 404 kts | 307° |
| 2026-04-26 15:06 | 47.38473 | 14.46873 | 38016 ft | 403 kts | 307° |
| 2026-04-26 15:07 | 47.43785 | 14.37311 | 38030 ft | 403 kts | 307° |
| 2026-04-26 15:07 | 47.47337 | 14.30895 | 38047 ft | 403 kts | 307° |
| 2026-04-26 15:08 | 47.50894 | 14.24459 | 38044 ft | 405 kts | 307° |
| 2026-04-26 15:08 | 47.54449 | 14.18009 | 38054 ft | 405 kts | 307° |
| 2026-04-26 15:09 | 47.58011 | 14.11531 | 38038 ft | 404 kts | 307° |
| 2026-04-26 15:09 | 47.61565 | 14.05052 | 38041 ft | 405 kts | 307° |
| 2026-04-26 15:10 | 47.64512 | 13.99669 | 38038 ft | 404 kts | 307° |
| 2026-04-26 15:10 | 47.68638 | 13.92112 | 38039 ft | 405 kts | 307° |
| 2026-04-26 15:11 | 47.72184 | 13.85601 | 38039 ft | 406 kts | 307° |
| 2026-04-26 15:11 | 47.75733 | 13.79069 | 38065 ft | 406 kts | 307° |
| 2026-04-26 15:12 | 47.79262 | 13.72520 | 38039 ft | 406 kts | 307° |
| 2026-04-26 15:12 | 47.82782 | 13.65942 | 38039 ft | 406 kts | 307° |
| 2026-04-26 15:13 | 47.85716 | 13.60479 | 38052 ft | 406 kts | 306° |
| 2026-04-26 15:13 | 47.89886 | 13.52925 | 38050 ft | 406 kts | 310° |
| 2026-04-26 15:14 | 47.93780 | 13.46812 | 38050 ft | 407 kts | 312° |
| 2026-04-26 15:14 | 47.97102 | 13.41753 | 38053 ft | 407 kts | 312° |
| 2026-04-26 15:15 | 48.01052 | 13.35708 | 38050 ft | 407 kts | 311° |
| 2026-04-26 15:15 | 48.04971 | 13.29668 | 38053 ft | 407 kts | 311° |
| 2026-04-26 15:16 | 48.08910 | 13.23572 | 38050 ft | 408 kts | 311° |
| 2026-04-26 15:16 | 48.12843 | 13.17468 | 38053 ft | 408 kts | 311° |
| 2026-04-26 15:17 | 48.16137 | 13.12345 | 38055 ft | 408 kts | 311° |
| 2026-04-26 15:17 | 48.20707 | 13.05221 | 38058 ft | 408 kts | 311° |
| 2026-04-26 15:18 | 48.24569 | 12.98999 | 38057 ft | 407 kts | 309° |
| 2026-04-26 15:18 | 48.28316 | 12.92626 | 38053 ft | 406 kts | 309° |
| 2026-04-26 15:19 | 48.32050 | 12.86246 | 38056 ft | 406 kts | 309° |
| 2026-04-26 15:19 | 48.35786 | 12.79872 | 38053 ft | 406 kts | 309° |
| 2026-04-26 15:20 | 48.39495 | 12.73543 | 38057 ft | 405 kts | 309° |
| 2026-04-26 15:20 | 48.43219 | 12.67175 | 38059 ft | 405 kts | 309° |
| 2026-04-26 15:21 | 48.46943 | 12.60791 | 38060 ft | 405 kts | 309° |
| 2026-04-26 15:21 | 48.50662 | 12.54400 | 38061 ft | 405 kts | 309° |
| 2026-04-26 15:22 | 48.54376 | 12.48002 | 38065 ft | 405 kts | 309° |
| 2026-04-26 15:22 | 48.58085 | 12.41597 | 38064 ft | 405 kts | 309° |
| 2026-04-26 15:23 | 48.61792 | 12.35179 | 38069 ft | 405 kts | 309° |
| 2026-04-26 15:23 | 48.65505 | 12.28736 | 38084 ft | 405 kts | 309° |
| 2026-04-26 15:24 | 48.69200 | 12.22310 | 38074 ft | 405 kts | 309° |
| 2026-04-26 15:24 | 48.72892 | 12.15872 | 38077 ft | 405 kts | 309° |
| 2026-04-26 15:25 | 48.75956 | 12.10518 | 38076 ft | 405 kts | 309° |
| 2026-04-26 15:25 | 48.80125 | 12.02871 | 38072 ft | 404 kts | 306° |
| 2026-04-26 15:26 | 48.83577 | 11.96150 | 38080 ft | 404 kts | 306° |
| 2026-04-26 15:26 | 48.87030 | 11.89424 | 38068 ft | 404 kts | 306° |
| 2026-04-26 15:27 | 48.90489 | 11.82708 | 38082 ft | 404 kts | 306° |
| 2026-04-26 15:27 | 48.93952 | 11.75980 | 38079 ft | 403 kts | 306° |
| 2026-04-26 15:28 | 48.97408 | 11.69250 | 38090 ft | 403 kts | 306° |
| 2026-04-26 15:28 | 49.00858 | 11.62515 | 38082 ft | 403 kts | 306° |
| 2026-04-26 15:29 | 49.04299 | 11.55781 | 38086 ft | 403 kts | 306° |
| 2026-04-26 15:30 | 49.11165 | 11.42291 | 38080 ft | 404 kts | 306° |
| 2026-04-26 15:30 | 49.14602 | 11.35512 | 38088 ft | 403 kts | 306° |
| 2026-04-26 15:31 | 49.19754 | 11.25329 | 38098 ft | 404 kts | 307° |
| 2026-04-26 15:32 | 49.24725 | 11.16780 | 38093 ft | 405 kts | 311° |
| 2026-04-26 15:32 | 49.29263 | 11.09477 | 38097 ft | 405 kts | 311° |
| 2026-04-26 15:33 | 49.33136 | 11.03217 | 38103 ft | 405 kts | 311° |
| 2026-04-26 15:33 | 49.37006 | 10.96925 | 38097 ft | 405 kts | 311° |
| 2026-04-26 15:34 | 49.41255 | 10.91319 | 38105 ft | 407 kts | 322° |
| 2026-04-26 15:34 | 49.45923 | 10.86351 | 38111 ft | 408 kts | 323° |
| 2026-04-26 15:35 | 49.50611 | 10.81431 | 38100 ft | 408 kts | 323° |
| 2026-04-26 15:35 | 49.55277 | 10.76470 | 38101 ft | 407 kts | 323° |
| 2026-04-26 15:36 | 49.59930 | 10.71489 | 38099 ft | 407 kts | 323° |
| 2026-04-26 15:36 | 49.64579 | 10.66495 | 38100 ft | 407 kts | 323° |
| 2026-04-26 15:37 | 49.69224 | 10.61494 | 38104 ft | 407 kts | 323° |
| 2026-04-26 15:37 | 49.73860 | 10.56561 | 38113 ft | 407 kts | 324° |
| 2026-04-26 15:38 | 49.78655 | 10.51877 | 38110 ft | 408 kts | 326° |
| 2026-04-26 15:38 | 49.83488 | 10.47264 | 38101 ft | 408 kts | 326° |
| 2026-04-26 15:39 | 49.88309 | 10.42644 | 38103 ft | 408 kts | 326° |
| 2026-04-26 15:39 | 49.92325 | 10.38775 | 38115 ft | 407 kts | 326° |
| 2026-04-26 15:40 | 49.97940 | 10.33336 | 38112 ft | 407 kts | 326° |
| 2026-04-26 15:40 | 50.02634 | 10.28422 | 38113 ft | 405 kts | 317° |
| 2026-04-26 15:41 | 50.06118 | 10.21674 | 38116 ft | 401 kts | 295° |
| 2026-04-26 15:41 | 50.07065 | 10.17668 | 38119 ft | 401 kts | 283° |
| 2026-04-26 15:41 | 50.07476 | 10.13370 | 38132 ft | 402 kts | 274° |
| 2026-04-26 15:42 | 50.07431 | 10.04646 | 38107 ft | 404 kts | 269° |
| 2026-04-26 15:42 | 50.07226 | 9.95888 | 38110 ft | 405 kts | 270° |
| 2026-04-26 15:43 | 50.07094 | 9.87122 | 38103 ft | 405 kts | 270° |
| 2026-04-26 15:44 | 50.06956 | 9.73989 | 38124 ft | 404 kts | 270° |
| 2026-04-26 15:44 | 50.06824 | 9.60910 | 38102 ft | 404 kts | 271° |
| 2026-04-26 15:45 | 50.06734 | 9.52046 | 37784 ft | 421 kts | 270° |
| 2026-04-26 15:45 | 50.06682 | 9.47434 | 37364 ft | 429 kts | 270° |
| 2026-04-26 15:46 | 50.06563 | 9.38103 | 36234 ft | 432 kts | 270° |
| 2026-04-26 15:46 | 50.06501 | 9.33422 | 35694 ft | 434 kts | 270° |
| 2026-04-26 15:46 | 50.06439 | 9.28725 | 35161 ft | 435 kts | 270° |
| 2026-04-26 15:46 | 50.06398 | 9.25608 | 34809 ft | 436 kts | 270° |
| 2026-04-26 15:47 | 50.06312 | 9.19291 | 34065 ft | 437 kts | 270° |
| 2026-04-26 15:47 | 50.06178 | 9.09789 | 32895 ft | 441 kts | 270° |
| 2026-04-26 15:47 | 50.06108 | 9.05017 | 32321 ft | 442 kts | 270° |
| 2026-04-26 15:48 | 50.06030 | 9.00274 | 31753 ft | 444 kts | 270° |
| 2026-04-26 15:48 | 50.05942 | 8.95392 | 31156 ft | 446 kts | 270° |
| 2026-04-26 15:48 | 50.05854 | 8.90562 | 30564 ft | 448 kts | 270° |
| 2026-04-26 15:48 | 50.05767 | 8.85762 | 29923 ft | 450 kts | 270° |
| 2026-04-26 15:49 | 50.05680 | 8.80892 | 29275 ft | 452 kts | 270° |
| 2026-04-26 15:49 | 50.05591 | 8.75997 | 28642 ft | 452 kts | 270° |
| 2026-04-26 15:49 | 50.05502 | 8.71125 | 28021 ft | 449 kts | 270° |
| 2026-04-26 15:49 | 50.05419 | 8.66290 | 27411 ft | 444 kts | 271° |
| 2026-04-26 15:50 | 50.05544 | 8.63143 | 27006 ft | 441 kts | 279° |
| 2026-04-26 15:50 | 50.06731 | 8.57139 | 26270 ft | 433 kts | 297° |
| 2026-04-26 15:50 | 50.08390 | 8.53250 | 25772 ft | 431 kts | 311° |
| 2026-04-26 15:50 | 50.10608 | 8.50122 | 25236 ft | 429 kts | 324° |
| 2026-04-26 15:51 | 50.13234 | 8.47946 | 24743 ft | 429 kts | 336° |
| 2026-04-26 15:51 | 50.16052 | 8.46429 | 24112 ft | 428 kts | 342° |
| 2026-04-26 15:51 | 50.18917 | 8.45156 | 23422 ft | 426 kts | 343° |
| 2026-04-26 15:51 | 50.21752 | 8.43919 | 22757 ft | 422 kts | 342° |
| 2026-04-26 15:52 | 50.24555 | 8.42638 | 22140 ft | 418 kts | 342° |
| 2026-04-26 15:52 | 50.27283 | 8.41327 | 21542 ft | 414 kts | 340° |
| 2026-04-26 15:52 | 50.29966 | 8.39610 | 20927 ft | 409 kts | 332° |
| 2026-04-26 15:52 | 50.31619 | 8.38197 | 20510 ft | 406 kts | 328° |
| 2026-04-26 15:53 | 50.34802 | 8.35078 | 19702 ft | 401 kts | 326° |
| 2026-04-26 15:53 | 50.37115 | 8.32692 | 19245 ft | 396 kts | 325° |
| 2026-04-26 15:53 | 50.39389 | 8.30341 | 18900 ft | 394 kts | 326° |
| 2026-04-26 15:53 | 50.41706 | 8.27967 | 18546 ft | 390 kts | 326° |
| 2026-04-26 15:54 | 50.43940 | 8.25698 | 17832 ft | 380 kts | 326° |
| 2026-04-26 15:54 | 50.46158 | 8.23459 | 16977 ft | 377 kts | 326° |
| 2026-04-26 15:54 | 50.48354 | 8.21250 | 16213 ft | 372 kts | 326° |
| 2026-04-26 15:54 | 50.50483 | 8.19112 | 15595 ft | 364 kts | 326° |
| 2026-04-26 15:55 | 50.52592 | 8.16993 | 15010 ft | 356 kts | 326° |
| 2026-04-26 15:55 | 50.54653 | 8.14922 | 14488 ft | 348 kts | 326° |
| 2026-04-26 15:55 | 50.56673 | 8.12889 | 13952 ft | 341 kts | 326° |
| 2026-04-26 15:55 | 50.58651 | 8.10897 | 13406 ft | 334 kts | 326° |
| 2026-04-26 15:56 | 50.60587 | 8.08940 | 12907 ft | 326 kts | 326° |
| 2026-04-26 15:56 | 50.62472 | 8.07024 | 12469 ft | 319 kts | 326° |
| 2026-04-26 15:56 | 50.64307 | 8.05157 | 12058 ft | 311 kts | 326° |
| 2026-04-26 15:56 | 50.66118 | 8.03313 | 11683 ft | 308 kts | 326° |
| 2026-04-26 15:57 | 50.67912 | 8.01486 | 11308 ft | 306 kts | 326° |
| 2026-04-26 15:57 | 50.69682 | 7.99682 | 11129 ft | 302 kts | 326° |
| 2026-04-26 15:57 | 50.71455 | 7.97866 | 11103 ft | 303 kts | 325° |
| 2026-04-26 15:57 | 50.72582 | 7.96493 | 11092 ft | 303 kts | 315° |
| 2026-04-26 15:58 | 50.73944 | 7.92742 | 11094 ft | 302 kts | 284° |
| 2026-04-26 15:58 | 50.74054 | 7.89414 | 11011 ft | 307 kts | 268° |
| 2026-04-26 15:58 | 50.73805 | 7.86092 | 10535 ft | 306 kts | 264° |
| 2026-04-26 15:58 | 50.73474 | 7.82787 | 10012 ft | 304 kts | 263° |
| 2026-04-26 15:59 | 50.73136 | 7.79590 | 9871 ft | 289 kts | 263° |
| 2026-04-26 15:59 | 50.72807 | 7.76517 | 9602 ft | 280 kts | 263° |
| 2026-04-26 15:59 | 50.72483 | 7.73502 | 9192 ft | 278 kts | 263° |
| 2026-04-26 15:59 | 50.72166 | 7.70501 | 8745 ft | 276 kts | 263° |
| 2026-04-26 16:00 | 50.71856 | 7.67524 | 8329 ft | 275 kts | 263° |
| 2026-04-26 16:00 | 50.71549 | 7.64549 | 7908 ft | 274 kts | 263° |
| 2026-04-26 16:00 | 50.71249 | 7.61592 | 7534 ft | 271 kts | 263° |
| 2026-04-26 16:00 | 50.70965 | 7.58778 | 7416 ft | 248 kts | 263° |
| 2026-04-26 16:01 | 50.70699 | 7.56169 | 6998 ft | 238 kts | 263° |
| 2026-04-26 16:01 | 50.70443 | 7.53608 | 6440 ft | 236 kts | 263° |
| 2026-04-26 16:01 | 50.70199 | 7.51087 | 5836 ft | 235 kts | 263° |
| 2026-04-26 16:01 | 50.70037 | 7.49374 | 5472 ft | 234 kts | 263° |
| 2026-04-26 16:02 | 50.69802 | 7.46835 | 4892 ft | 233 kts | 263° |
| 2026-04-26 16:02 | 50.69642 | 7.44321 | 4273 ft | 230 kts | 275° |
| 2026-04-26 16:02 | 50.69888 | 7.41863 | 3908 ft | 227 kts | 283° |
| 2026-04-26 16:02 | 50.70105 | 7.40232 | 3682 ft | 229 kts | 284° |
| 2026-04-26 16:03 | 50.70921 | 7.37220 | 3136 ft | 224 kts | 315° |
| 2026-04-26 16:03 | 50.72110 | 7.35654 | 2995 ft | 222 kts | 324° |
| 2026-04-26 16:03 | 50.73259 | 7.34235 | 2965 ft | 194 kts | 321° |
| 2026-04-26 16:03 | 50.74210 | 7.32902 | 2888 ft | 173 kts | 318° |
| 2026-04-26 16:04 | 50.75091 | 7.31617 | 2983 ft | 172 kts | 319° |
| 2026-04-26 16:04 | 50.75979 | 7.30328 | 2888 ft | 173 kts | 319° |
| 2026-04-26 16:04 | 50.76862 | 7.29055 | 2655 ft | 171 kts | 319° |
| 2026-04-26 16:04 | 50.77737 | 7.27793 | 2408 ft | 171 kts | 318° |
| 2026-04-26 16:05 | 50.78614 | 7.26521 | 2194 ft | 171 kts | 319° |
| 2026-04-26 16:05 | 50.79475 | 7.25282 | 1961 ft | 169 kts | 318° |
| 2026-04-26 16:05 | 50.80345 | 7.24033 | 1722 ft | 169 kts | 318° |
| 2026-04-26 16:05 | 50.81174 | 7.22828 | 1486 ft | 157 kts | 319° |
| 2026-04-26 16:06 | 50.81974 | 7.21678 | 1298 ft | 155 kts | 317° |
| 2026-04-26 16:06 | 50.82762 | 7.20526 | 1095 ft | 154 kts | 318° |
| 2026-04-26 16:06 | 50.83559 | 7.19405 | 834 ft | 154 kts | 317° |
| 2026-04-26 16:06 | 50.84347 | 7.18245 | 675 ft | 154 kts | 317° |
| 2026-04-26 16:07 | 50.85142 | 7.17113 | 463 ft | 153 kts | 317° |
| 2026-04-26 16:07 | 50.85909 | 7.15992 | 312 ft | 141 kts | 317° |
| 2026-04-26 16:07 | 50.86536 | 7.15097 | 285 ft | 93 kts | 317° |
| 2026-04-26 16:07 | 50.86850 | 7.14639 | 270 ft | 47 kts | 317° |
| 2026-04-26 16:08 | 50.87093 | 7.14287 | 259 ft | 47 kts | 317° |
| 2026-04-26 16:08 | 50.87290 | 7.13905 | 249 ft | 41 kts | 292° |
| 2026-04-26 16:08 | 50.87321 | 7.13694 | 245 ft | 0 kts | 279° |
| 2026-04-26 16:08 | 50.87321 | 7.13693 | 245 ft | 0 kts | 279° |
| 2026-04-26 16:09 | 50.87323 | 7.13677 | 245 ft | 5 kts | 279° |
| 2026-04-26 16:09 | 50.87333 | 7.13573 | 242 ft | 13 kts | 279° |
| 2026-04-26 16:09 | 50.87328 | 7.13534 | 241 ft | 1 kts | 225° |
| 2026-04-26 16:10 | 50.87319 | 7.13536 | 241 ft | 1 kts | 177° |
| 2026-04-26 16:10 | 50.87284 | 7.13560 | 242 ft | 8 kts | 144° |
| 2026-04-26 16:10 | 50.87221 | 7.13646 | 245 ft | 14 kts | 139° |
| 2026-04-26 16:10 | 50.87138 | 7.13765 | 248 ft | 17 kts | 136° |
| 2026-04-26 16:11 | 50.87049 | 7.13898 | 251 ft | 18 kts | 137° |
| 2026-04-26 16:11 | 50.87009 | 7.13957 | 254 ft | 0 kts | 137° |
| 2026-04-26 16:12 | 50.87004 | 7.13964 | 254 ft | 3 kts | 137° |
| 2026-04-26 16:12 | 50.86974 | 7.14007 | 257 ft | 8 kts | 140° |
| 2026-04-26 16:12 | 50.86938 | 7.13991 | 261 ft | 7 kts | 236° |
| 2026-04-26 16:13 | 50.86899 | 7.13909 | 258 ft | 8 kts | 229° |
| 2026-04-26 16:13 | 50.86887 | 7.13888 | 258 ft | 3 kts | 227° |
| 2026-04-26 16:13 | 50.86876 | 7.13869 | 258 ft | 3 kts | 227° |
| 2026-04-26 16:13 | 50.86862 | 7.13844 | 258 ft | 3 kts | 227° |
| 2026-04-26 16:14 | 50.86860 | 7.13841 | 258 ft | 0 kts | 227° |